sensor_id;sensor_type;location;lat;lon;timestamp;temperature;humidity
4960;DHT22;2495;48.200;11.532;2023-03-01T00:02:09;4.60;64.70
4960;DHT22;2495;48.200;11.532;2023-03-01T00:07:17;4.50;65.10
4960;DHT22;2495;48.200;11.532;2023-03-01T00:12:18;4.70;66.90
4960;DHT22;2495;48.200;11.532;2023-03-01T00:17:19;4.80;64.70
4960;DHT22;2495;48.200;11.532;2023-03-01T00:22:21;4.90;65.70
4960;DHT22;2495;48.200;11.532;2023-03-01T00:27:22;5.00;65.00
4960;DHT22;2495;48.200;11.532;2023-03-01T00:32:23;4.70;64.90
4960;DHT22;2495;48.200;11.532;2023-03-01T00:37:25;4.50;65.00
4960;DHT22;2495;48.200;11.532;2023-03-01T00:42:28;4.50;65.20
4960;DHT22;2495;48.200;11.532;2023-03-01T00:47:30;4.40;65.70
4960;DHT22;2495;48.200;11.532;2023-03-01T00:52:31;4.50;66.70
4960;DHT22;2495;48.200;11.532;2023-03-01T00:57:33;4.60;65.60
4960;DHT22;2495;48.200;11.532;2023-03-01T01:02:34;4.70;66.10
4960;DHT22;2495;48.200;11.532;2023-03-01T01:07:36;4.90;65.10
4960;DHT22;2495;48.200;11.532;2023-03-01T01:12:37;4.80;64.30
4960;DHT22;2495;48.200;11.532;2023-03-01T01:17:38;4.90;65.10
4960;DHT22;2495;48.200;11.532;2023-03-01T01:22:40;5.10;64.80
4960;DHT22;2495;48.200;11.532;2023-03-01T01:27:41;5.00;64.30
4960;DHT22;2495;48.200;11.532;2023-03-01T01:32:43;4.90;65.10
4960;DHT22;2495;48.200;11.532;2023-03-01T01:37:47;5.00;64.60
4960;DHT22;2495;48.200;11.532;2023-03-01T01:42:54;5.10;65.40
4960;DHT22;2495;48.200;11.532;2023-03-01T01:48:09;5.20;64.70
4960;DHT22;2495;48.200;11.532;2023-03-01T01:53:17;5.30;65.00
4960;DHT22;2495;48.200;11.532;2023-03-01T01:58:18;5.20;64.60
4960;DHT22;2495;48.200;11.532;2023-03-01T02:03:26;5.00;63.60
4960;DHT22;2495;48.200;11.532;2023-03-01T02:08:27;4.90;65.40
4960;DHT22;2495;48.200;11.532;2023-03-01T02:13:27;4.90;64.20
4960;DHT22;2495;48.200;11.532;2023-03-01T02:18:31;4.60;64.30
4960;DHT22;2495;48.200;11.532;2023-03-01T02:23:35;4.60;66.40
4960;DHT22;2495;48.200;11.532;2023-03-01T02:28:37;4.60;64.90
4960;DHT22;2495;48.200;11.532;2023-03-01T02:33:38;4.50;64.80
4960;DHT22;2495;48.200;11.532;2023-03-01T02:38:42;4.40;65.40
4960;DHT22;2495;48.200;11.532;2023-03-01T02:43:43;4.30;65.40
4960;DHT22;2495;48.200;11.532;2023-03-01T02:48:50;4.40;66.80
4960;DHT22;2495;48.200;11.532;2023-03-01T02:54:22;4.40;65.50
4960;DHT22;2495;48.200;11.532;2023-03-01T02:59:25;4.30;66.00
4960;DHT22;2495;48.200;11.532;2023-03-01T03:04:25;4.40;65.90
4960;DHT22;2495;48.200;11.532;2023-03-01T03:09:33;4.60;65.20
4960;DHT22;2495;48.200;11.532;2023-03-01T03:14:34;4.50;64.70
4960;DHT22;2495;48.200;11.532;2023-03-01T03:19:35;4.30;64.20
4960;DHT22;2495;48.200;11.532;2023-03-01T03:24:37;4.30;64.80
4960;DHT22;2495;48.200;11.532;2023-03-01T03:29:38;4.20;64.40
4960;DHT22;2495;48.200;11.532;2023-03-01T03:34:45;4.20;65.30
4960;DHT22;2495;48.200;11.532;2023-03-01T03:40:12;4.20;64.80
4960;DHT22;2495;48.200;11.532;2023-03-01T03:45:14;4.40;65.40
4960;DHT22;2495;48.200;11.532;2023-03-01T03:50:15;4.30;64.00
4960;DHT22;2495;48.200;11.532;2023-03-01T03:55:17;4.30;64.80
4960;DHT22;2495;48.200;11.532;2023-03-01T04:00:27;4.40;65.30
4960;DHT22;2495;48.200;11.532;2023-03-01T04:05:28;4.60;65.10
4960;DHT22;2495;48.200;11.532;2023-03-01T04:10:30;4.50;63.50
4960;DHT22;2495;48.200;11.532;2023-03-01T04:15:33;4.20;64.10
4960;DHT22;2495;48.200;11.532;2023-03-01T04:20:34;3.90;64.20
4960;DHT22;2495;48.200;11.532;2023-03-01T04:26:36;3.70;64.70
4960;DHT22;2495;48.200;11.532;2023-03-01T04:30:46;3.60;66.20
4960;DHT22;2495;48.200;11.532;2023-03-01T04:46:23;3.40;67.10
4960;DHT22;2495;48.200;11.532;2023-03-01T04:51:25;3.30;67.10
4960;DHT22;2495;48.200;11.532;2023-03-01T04:56:26;3.30;66.40
4960;DHT22;2495;48.200;11.532;2023-03-01T05:01:28;3.20;66.60
4960;DHT22;2495;48.200;11.532;2023-03-01T05:06:29;3.10;66.90
4960;DHT22;2495;48.200;11.532;2023-03-01T05:11:30;3.30;67.90
4960;DHT22;2495;48.200;11.532;2023-03-01T05:16:31;3.30;66.30
4960;DHT22;2495;48.200;11.532;2023-03-01T05:21:32;3.20;66.30
4960;DHT22;2495;48.200;11.532;2023-03-01T05:26:34;3.00;66.80
4960;DHT22;2495;48.200;11.532;2023-03-01T05:31:35;2.90;67.10
4960;DHT22;2495;48.200;11.532;2023-03-01T05:36:36;2.80;67.40
4960;DHT22;2495;48.200;11.532;2023-03-01T05:41:38;3.00;68.20
4960;DHT22;2495;48.200;11.532;2023-03-01T05:46:39;3.10;67.20
4960;DHT22;2495;48.200;11.532;2023-03-01T05:51:41;3.20;67.90
4960;DHT22;2495;48.200;11.532;2023-03-01T05:56:42;3.30;66.80
4960;DHT22;2495;48.200;11.532;2023-03-01T06:01:44;3.40;66.90
4960;DHT22;2495;48.200;11.532;2023-03-01T06:06:47;3.30;65.60
4960;DHT22;2495;48.200;11.532;2023-03-01T06:11:49;3.20;65.30
4960;DHT22;2495;48.200;11.532;2023-03-01T06:16:50;3.10;66.20
4960;DHT22;2495;48.200;11.532;2023-03-01T06:21:52;3.00;66.60
4960;DHT22;2495;48.200;11.532;2023-03-01T06:26:53;2.90;66.80
4960;DHT22;2495;48.200;11.532;2023-03-01T06:31:54;2.90;67.20
4960;DHT22;2495;48.200;11.532;2023-03-01T06:36:55;2.80;67.50
4960;DHT22;2495;48.200;11.532;2023-03-01T06:42:00;2.70;67.50
4960;DHT22;2495;48.200;11.532;2023-03-01T06:47:01;2.60;68.30
4960;DHT22;2495;48.200;11.532;2023-03-01T06:52:02;2.70;68.10
4960;DHT22;2495;48.200;11.532;2023-03-01T06:57:04;2.70;68.00
4960;DHT22;2495;48.200;11.532;2023-03-01T07:02:05;2.90;68.70
4960;DHT22;2495;48.200;11.532;2023-03-01T07:07:06;3.10;67.40
4960;DHT22;2495;48.200;11.532;2023-03-01T07:12:08;3.10;66.50
4960;DHT22;2495;48.200;11.532;2023-03-01T07:17:09;3.00;66.70
4960;DHT22;2495;48.200;11.532;2023-03-01T07:22:10;2.90;66.80
4960;DHT22;2495;48.200;11.532;2023-03-01T07:27:12;2.90;67.10
4960;DHT22;2495;48.200;11.532;2023-03-01T07:32:14;3.00;67.00
4960;DHT22;2495;48.200;11.532;2023-03-01T07:37:16;3.00;66.90
4960;DHT22;2495;48.200;11.532;2023-03-01T07:42:17;3.10;67.70
4960;DHT22;2495;48.200;11.532;2023-03-01T07:47:18;3.60;66.60
4960;DHT22;2495;48.200;11.532;2023-03-01T07:52:19;4.00;66.10
4960;DHT22;2495;48.200;11.532;2023-03-01T07:57:21;4.10;63.90
4960;DHT22;2495;48.200;11.532;2023-03-01T08:02:22;3.90;64.50
4960;DHT22;2495;48.200;11.532;2023-03-01T08:07:23;3.80;64.50
4960;DHT22;2495;48.200;11.532;2023-03-01T08:12:25;3.60;64.90
4960;DHT22;2495;48.200;11.532;2023-03-01T08:17:26;3.60;65.00
4960;DHT22;2495;48.200;11.532;2023-03-01T08:22:30;3.60;65.10
4960;DHT22;2495;48.200;11.532;2023-03-01T08:27:31;3.50;65.20
4960;DHT22;2495;48.200;11.532;2023-03-01T08:32:36;3.60;65.00
4960;DHT22;2495;48.200;11.532;2023-03-01T08:37:36;3.60;65.70
4960;DHT22;2495;48.200;11.532;2023-03-01T08:42:38;3.70;64.90
4960;DHT22;2495;48.200;11.532;2023-03-01T08:47:39;3.70;64.20
4960;DHT22;2495;48.200;11.532;2023-03-01T08:52:40;3.70;64.80
4960;DHT22;2495;48.200;11.532;2023-03-01T08:57:41;3.90;65.30
4960;DHT22;2495;48.200;11.532;2023-03-01T09:02:43;4.30;63.90
4960;DHT22;2495;48.200;11.532;2023-03-01T09:07:44;4.50;63.00
4960;DHT22;2495;48.200;11.532;2023-03-01T09:12:45;4.40;62.40
4960;DHT22;2495;48.200;11.532;2023-03-01T09:17:47;4.30;62.70
4960;DHT22;2495;48.200;11.532;2023-03-01T09:22:49;4.20;64.20
4960;DHT22;2495;48.200;11.532;2023-03-01T09:27:51;4.20;64.30
4960;DHT22;2495;48.200;11.532;2023-03-01T09:32:56;4.50;65.00
4960;DHT22;2495;48.200;11.532;2023-03-01T09:37:56;4.90;63.80
4960;DHT22;2495;48.200;11.532;2023-03-01T09:48:06;4.90;63.60
4960;DHT22;2495;48.200;11.532;2023-03-01T09:53:10;5.00;63.30
4960;DHT22;2495;48.200;11.532;2023-03-01T10:09:18;5.60;62.60
4960;DHT22;2495;48.200;11.532;2023-03-01T10:14:36;5.90;59.90
4960;DHT22;2495;48.200;11.532;2023-03-01T10:19:46;7.80;58.90
4960;DHT22;2495;48.200;11.532;2023-03-01T10:24:48;8.80;54.30
4960;DHT22;2495;48.200;11.532;2023-03-01T10:35:27;9.70;51.20
4960;DHT22;2495;48.200;11.532;2023-03-01T10:40:30;9.90;51.50
4960;DHT22;2495;48.200;11.532;2023-03-01T10:45:35;9.90;51.00
4960;DHT22;2495;48.200;11.532;2023-03-01T10:50:35;10.10;51.80
4960;DHT22;2495;48.200;11.532;2023-03-01T10:55:37;11.00;48.60
4960;DHT22;2495;48.200;11.532;2023-03-01T11:00:54;11.80;47.50
4960;DHT22;2495;48.200;11.532;2023-03-01T11:05:56;12.30;46.20
4960;DHT22;2495;48.200;11.532;2023-03-01T11:11:24;13.30;44.00
4960;DHT22;2495;48.200;11.532;2023-03-01T11:16:40;12.90;44.20
4960;DHT22;2495;48.200;11.532;2023-03-01T11:22:11;13.90;42.80
4960;DHT22;2495;48.200;11.532;2023-03-01T11:32:36;14.50;42.60
4960;DHT22;2495;48.200;11.532;2023-03-01T11:37:38;15.70;39.50
4960;DHT22;2495;48.200;11.532;2023-03-01T11:42:48;16.60;38.00
4960;DHT22;2495;48.200;11.532;2023-03-01T11:48:17;16.90;36.30
4960;DHT22;2495;48.200;11.532;2023-03-01T11:59:06;16.20;37.60
4960;DHT22;2495;48.200;11.532;2023-03-01T12:14:54;15.70;38.40
4960;DHT22;2495;48.200;11.532;2023-03-01T12:25:27;16.60;37.00
4960;DHT22;2495;48.200;11.532;2023-03-01T12:47:53;17.00;35.60
4960;DHT22;2495;48.200;11.532;2023-03-01T12:53:18;16.40;36.80
4960;DHT22;2495;48.200;11.532;2023-03-01T13:09:58;15.20;39.60
4960;DHT22;2495;48.200;11.532;2023-03-01T13:19:32;14.10;41.30
4960;DHT22;2495;48.200;11.532;2023-03-01T13:24:40;13.60;42.20
4960;DHT22;2495;48.200;11.532;2023-03-01T13:34:55;14.60;41.60
4960;DHT22;2495;48.200;11.532;2023-03-01T13:45:39;13.20;42.90
4960;DHT22;2495;48.200;11.532;2023-03-01T13:50:46;11.60;47.20
4960;DHT22;2495;48.200;11.532;2023-03-01T13:55:51;11.60;47.20
4960;DHT22;2495;48.200;11.532;2023-03-01T14:01:05;11.60;46.40
4960;DHT22;2495;48.200;11.532;2023-03-01T14:06:12;11.60;48.00
4960;DHT22;2495;48.200;11.532;2023-03-01T14:22:29;10.90;49.60
4960;DHT22;2495;48.200;11.532;2023-03-01T14:27:32;10.90;49.40
4960;DHT22;2495;48.200;11.532;2023-03-01T14:32:35;11.00;49.20
4960;DHT22;2495;48.200;11.532;2023-03-01T14:37:36;11.00;49.50
4960;DHT22;2495;48.200;11.532;2023-03-01T14:42:37;10.90;49.40
4960;DHT22;2495;48.200;11.532;2023-03-01T14:47:39;10.70;49.90
4960;DHT22;2495;48.200;11.532;2023-03-01T14:52:41;10.60;50.30
4960;DHT22;2495;48.200;11.532;2023-03-01T14:57:46;10.60;50.90
4960;DHT22;2495;48.200;11.532;2023-03-01T16:06:37;11.40;52.90
4960;DHT22;2495;48.200;11.532;2023-03-01T16:11:38;11.00;52.70
4960;DHT22;2495;48.200;11.532;2023-03-01T16:16:40;10.30;54.80
4960;DHT22;2495;48.200;11.532;2023-03-01T16:21:42;10.20;54.10
4960;DHT22;2495;48.200;11.532;2023-03-01T16:26:43;10.00;55.00
4960;DHT22;2495;48.200;11.532;2023-03-01T16:31:44;9.90;55.00
4960;DHT22;2495;48.200;11.532;2023-03-01T16:36:46;9.70;54.90
4960;DHT22;2495;48.200;11.532;2023-03-01T16:41:48;9.60;56.10
4960;DHT22;2495;48.200;11.532;2023-03-01T16:46:59;9.40;56.50
4960;DHT22;2495;48.200;11.532;2023-03-01T16:52:00;9.30;57.00
4960;DHT22;2495;48.200;11.532;2023-03-01T16:57:09;9.40;57.70
4960;DHT22;2495;48.200;11.532;2023-03-01T17:02:14;9.50;57.10
4960;DHT22;2495;48.200;11.532;2023-03-01T17:07:15;9.40;57.00
4960;DHT22;2495;48.200;11.532;2023-03-01T17:12:25;9.30;57.40
4960;DHT22;2495;48.200;11.532;2023-03-01T17:17:26;9.10;58.00
4960;DHT22;2495;48.200;11.532;2023-03-01T17:22:27;9.00;58.50
4960;DHT22;2495;48.200;11.532;2023-03-01T17:27:29;8.80;58.60
4960;DHT22;2495;48.200;11.532;2023-03-01T17:32:30;8.80;58.90
4960;DHT22;2495;48.200;11.532;2023-03-01T17:37:31;8.70;59.00
4960;DHT22;2495;48.200;11.532;2023-03-01T17:42:33;8.60;59.90
4960;DHT22;2495;48.200;11.532;2023-03-01T17:47:37;8.70;60.90
4960;DHT22;2495;48.200;11.532;2023-03-01T17:52:43;8.80;59.90
4960;DHT22;2495;48.200;11.532;2023-03-01T17:57:44;8.70;59.80
4960;DHT22;2495;48.200;11.532;2023-03-01T18:02:46;8.60;60.20
4960;DHT22;2495;48.200;11.532;2023-03-01T18:07:47;8.40;61.10
4960;DHT22;2495;48.200;11.532;2023-03-01T18:12:48;8.20;61.90
4960;DHT22;2495;48.200;11.532;2023-03-01T18:17:50;8.00;62.50
4960;DHT22;2495;48.200;11.532;2023-03-01T18:22:51;8.00;62.70
4960;DHT22;2495;48.200;11.532;2023-03-01T18:27:55;7.90;62.60
4960;DHT22;2495;48.200;11.532;2023-03-01T18:33:00;7.80;63.20
4960;DHT22;2495;48.200;11.532;2023-03-01T18:38:01;7.70;62.00
4960;DHT22;2495;48.200;11.532;2023-03-01T18:43:02;7.70;61.90
4960;DHT22;2495;48.200;11.532;2023-03-01T18:48:04;7.60;61.90
4960;DHT22;2495;48.200;11.532;2023-03-01T18:53:08;7.50;62.20
4960;DHT22;2495;48.200;11.532;2023-03-01T18:58:41;7.50;62.90
4960;DHT22;2495;48.200;11.532;2023-03-01T19:04:50;7.40;63.20
4960;DHT22;2495;48.200;11.532;2023-03-01T19:09:51;7.30;62.80
4960;DHT22;2495;48.200;11.532;2023-03-01T19:14:53;7.40;64.30
4960;DHT22;2495;48.200;11.532;2023-03-01T19:19:54;7.50;63.00
4960;DHT22;2495;48.200;11.532;2023-03-01T19:24:55;7.40;63.60
4960;DHT22;2495;48.200;11.532;2023-03-01T19:29:56;7.30;63.80
4960;DHT22;2495;48.200;11.532;2023-03-01T19:34:58;7.20;63.90
4960;DHT22;2495;48.200;11.532;2023-03-01T19:39:59;7.10;64.20
4960;DHT22;2495;48.200;11.532;2023-03-01T19:45:00;7.00;64.40
4960;DHT22;2495;48.200;11.532;2023-03-01T19:50:02;7.00;64.80
4960;DHT22;2495;48.200;11.532;2023-03-01T19:55:06;6.90;65.30
4960;DHT22;2495;48.200;11.532;2023-03-01T20:00:08;6.80;67.00
4960;DHT22;2495;48.200;11.532;2023-03-01T20:05:16;6.70;67.60
4960;DHT22;2495;48.200;11.532;2023-03-01T20:10:18;6.70;67.50
4960;DHT22;2495;48.200;11.532;2023-03-01T20:15:19;6.70;67.50
4960;DHT22;2495;48.200;11.532;2023-03-01T20:20:20;6.70;67.90
4960;DHT22;2495;48.200;11.532;2023-03-01T20:25:22;6.60;68.40
4960;DHT22;2495;48.200;11.532;2023-03-01T20:30:23;6.60;69.10
4960;DHT22;2495;48.200;11.532;2023-03-01T20:35:25;6.60;68.70
4960;DHT22;2495;48.200;11.532;2023-03-01T20:40:26;6.50;69.40
4960;DHT22;2495;48.200;11.532;2023-03-01T20:45:28;6.70;70.10
4960;DHT22;2495;48.200;11.532;2023-03-01T20:50:29;6.80;68.90
4960;DHT22;2495;48.200;11.532;2023-03-01T20:55:31;6.70;68.90
4960;DHT22;2495;48.200;11.532;2023-03-01T21:00:32;6.60;68.90
4960;DHT22;2495;48.200;11.532;2023-03-01T21:05:33;6.50;69.30
4960;DHT22;2495;48.200;11.532;2023-03-01T21:10:40;6.40;69.60
4960;DHT22;2495;48.200;11.532;2023-03-01T21:15:42;6.60;70.80
4960;DHT22;2495;48.200;11.532;2023-03-01T21:20:43;6.60;69.40
4960;DHT22;2495;48.200;11.532;2023-03-01T21:25:44;6.40;69.60
4960;DHT22;2495;48.200;11.532;2023-03-01T21:30:46;6.30;69.80
4960;DHT22;2495;48.200;11.532;2023-03-01T21:35:49;6.20;70.20
4960;DHT22;2495;48.200;11.532;2023-03-01T21:40:50;6.10;70.20
4960;DHT22;2495;48.200;11.532;2023-03-01T21:45:52;6.00;70.20
4960;DHT22;2495;48.200;11.532;2023-03-01T21:50:57;6.00;70.00
4960;DHT22;2495;48.200;11.532;2023-03-01T21:55:58;5.90;71.10
4960;DHT22;2495;48.200;11.532;2023-03-01T22:01:05;5.90;70.60
4960;DHT22;2495;48.200;11.532;2023-03-01T22:06:05;5.70;71.00
4960;DHT22;2495;48.200;11.532;2023-03-01T22:11:07;5.60;71.10
4960;DHT22;2495;48.200;11.532;2023-03-01T22:16:08;5.60;71.50
4960;DHT22;2495;48.200;11.532;2023-03-01T22:21:10;5.50;71.80
4960;DHT22;2495;48.200;11.532;2023-03-01T22:26:27;5.50;71.30
4960;DHT22;2495;48.200;11.532;2023-03-01T22:31:28;5.40;72.60
4960;DHT22;2495;48.200;11.532;2023-03-01T22:36:29;5.60;73.20
4960;DHT22;2495;48.200;11.532;2023-03-01T22:41:31;5.70;71.70
4960;DHT22;2495;48.200;11.532;2023-03-01T22:46:32;5.60;71.50
4960;DHT22;2495;48.200;11.532;2023-03-01T22:51:35;5.50;71.40
4960;DHT22;2495;48.200;11.532;2023-03-01T22:56:36;5.40;71.40
4960;DHT22;2495;48.200;11.532;2023-03-01T23:01:37;5.30;71.20
4960;DHT22;2495;48.200;11.532;2023-03-01T23:06:38;5.20;71.50
4960;DHT22;2495;48.200;11.532;2023-03-01T23:11:39;5.10;71.20
4960;DHT22;2495;48.200;11.532;2023-03-01T23:16:41;5.10;72.00
4960;DHT22;2495;48.200;11.532;2023-03-01T23:21:42;5.10;71.80
4960;DHT22;2495;48.200;11.532;2023-03-01T23:26:44;5.10;71.70
4960;DHT22;2495;48.200;11.532;2023-03-01T23:31:46;5.00;71.50
4960;DHT22;2495;48.200;11.532;2023-03-01T23:36:49;4.90;71.30
4960;DHT22;2495;48.200;11.532;2023-03-01T23:41:49;4.80;71.10
4960;DHT22;2495;48.200;11.532;2023-03-01T23:46:54;4.80;72.00
4960;DHT22;2495;48.200;11.532;2023-03-01T23:51:59;5.00;73.10
4960;DHT22;2495;48.200;11.532;2023-03-01T23:57:03;5.10;71.70
